createdAt,value
2022-09-15T00:02:21.350Z,2.58
2022-09-15T00:04:47.899Z,2.67
2022-09-15T00:07:14.609Z,2.25
2022-09-15T00:09:41.249Z,2.70
2022-09-15T00:12:07.873Z,2.45
2022-09-15T00:14:35.297Z,2.78
2022-09-15T00:17:01.943Z,2.88
2022-09-15T00:19:28.496Z,2.80
2022-09-15T00:21:55.040Z,3.10
2022-09-15T00:24:21.630Z,2.78
2022-09-15T00:26:48.150Z,3.78
2022-09-15T00:29:14.652Z,2.70
2022-09-15T00:31:41.212Z,2.67
2022-09-15T00:34:07.887Z,2.92
2022-09-15T00:36:34.374Z,3.15
2022-09-15T00:39:01.027Z,3.47
2022-09-15T00:41:28.038Z,3.40
2022-09-15T00:44:01.920Z,4.32
2022-09-15T00:46:36.102Z,3.42
2022-09-15T00:49:05.448Z,4.13
2022-09-15T00:51:52.205Z,3.85
2022-09-15T00:54:25.222Z,2.92
2022-09-15T00:56:53.176Z,2.28
2022-09-15T00:59:24.932Z,2.88
2022-09-15T01:01:57.456Z,2.28
2022-09-15T01:04:25.942Z,2.92
2022-09-15T01:06:55.504Z,2.47
2022-09-15T01:09:28.442Z,2.63
2022-09-15T01:11:55.238Z,3.97
2022-09-15T01:14:21.795Z,4.10
2022-09-15T01:16:48.715Z,3.80
2022-09-15T01:19:18.260Z,4.13
2022-09-15T01:22:09.551Z,3.78
2022-09-15T01:24:45.022Z,3.22
2022-09-15T01:27:40.606Z,2.90
2022-09-15T01:30:10.707Z,2.55
2022-09-15T01:33:04.736Z,3.33
2022-09-15T01:35:40.664Z,3.22
2022-09-15T01:38:25.571Z,3.00
2022-09-15T01:40:58.446Z,3.10
2022-09-15T01:43:26.454Z,4.97
2022-09-15T01:45:53.479Z,3.53
2022-09-15T01:48:22.345Z,4.03
2022-09-15T01:50:51.170Z,5.03
2022-09-15T01:53:22.321Z,4.25
2022-09-15T01:55:52.611Z,5.43
2022-09-15T01:58:19.344Z,5.88
2022-09-15T02:00:52.249Z,5.68
2022-09-15T02:03:21.469Z,5.50
2022-09-15T02:05:55.998Z,4.00
2022-09-15T02:08:28.564Z,6.07
2022-09-15T02:10:55.895Z,3.80
2022-09-15T02:13:30.992Z,3.28
2022-09-15T02:15:59.630Z,2.90
2022-09-15T02:18:39.151Z,2.22
2022-09-15T02:21:17.892Z,1.92
2022-09-15T02:23:47.699Z,3.53
2022-09-15T02:26:17.547Z,3.10
2022-09-15T02:28:45.382Z,5.90
2022-09-15T02:31:14.686Z,5.75
2022-09-15T02:33:44.229Z,6.07
2022-09-15T02:36:13.593Z,5.28
2022-09-15T02:38:43.932Z,6.07
2022-09-15T02:41:10.608Z,4.28
2022-09-15T02:43:44.057Z,6.30
2022-09-15T02:46:10.682Z,5.60
2022-09-15T02:48:37.348Z,4.25
2022-09-15T02:51:03.852Z,2.92
2022-09-15T02:53:30.368Z,2.72
2022-09-15T02:55:58.034Z,3.08
2022-09-15T02:58:24.699Z,3.10
2022-09-15T03:00:52.770Z,2.53
2022-09-15T03:03:20.200Z,4.40
2022-09-15T03:05:46.670Z,3.83
2022-09-15T03:08:13.280Z,2.75
2022-09-15T03:10:39.945Z,2.92
2022-09-15T03:13:07.145Z,2.25
2022-09-15T03:15:33.728Z,2.03
2022-09-15T03:18:01.762Z,2.65
2022-09-15T03:20:28.935Z,1.92
2022-09-15T03:22:55.630Z,2.40
2022-09-15T03:25:22.641Z,2.50
2022-09-15T03:27:49.147Z,3.55
2022-09-15T03:30:15.743Z,2.97
2022-09-15T03:32:42.356Z,4.32
2022-09-15T03:35:09.147Z,3.08
2022-09-15T03:37:35.627Z,2.70
2022-09-15T03:40:03.814Z,3.22
2022-09-15T03:42:30.521Z,2.30
2022-09-15T03:44:57.271Z,2.38
2022-09-15T03:47:24.677Z,3.78
2022-09-15T03:49:51.146Z,3.47
2022-09-15T03:52:19.987Z,3.83
2022-09-15T03:54:48.111Z,3.47
2022-09-15T03:57:14.593Z,2.78
2022-09-15T03:59:41.170Z,3.50
2022-09-15T04:02:07.899Z,3.10
2022-09-15T04:04:35.083Z,2.90
2022-09-15T04:07:01.671Z,2.28
2022-09-15T04:09:31.110Z,1.88
2022-09-15T04:12:00.655Z,4.07
2022-09-15T04:14:28.908Z,4.60
2022-09-15T04:16:55.399Z,3.50
2022-09-15T04:19:21.910Z,3.25
2022-09-15T04:21:48.572Z,4.57
2022-09-15T04:24:15.202Z,3.90
2022-09-15T04:26:41.878Z,5.30
2022-09-15T04:29:11.799Z,5.22
2022-09-15T04:31:38.368Z,4.20
2022-09-15T04:34:04.955Z,3.92
2022-09-15T04:36:31.803Z,4.93
2022-09-15T04:38:58.372Z,5.03
2022-09-15T04:41:25.665Z,4.97
2022-09-15T04:43:52.288Z,3.97
2022-09-15T04:46:18.961Z,5.30
2022-09-15T04:48:46.196Z,4.85
2022-09-15T04:51:19.842Z,4.93
2022-09-15T04:53:46.966Z,3.72
2022-09-15T04:56:18.271Z,2.75
2022-09-15T04:58:57.343Z,2.88
2022-09-15T05:01:30.387Z,3.75
2022-09-15T05:03:57.010Z,2.50
2022-09-15T05:06:24.957Z,2.38
2022-09-15T05:08:52.960Z,2.45
2022-09-15T05:11:20.177Z,2.33
2022-09-15T05:13:46.885Z,2.45
2022-09-15T05:16:15.266Z,2.25
2022-09-15T05:18:42.914Z,1.80
2022-09-15T05:21:11.094Z,2.30
2022-09-15T05:23:37.925Z,1.90
2022-09-15T05:26:05.730Z,2.15
2022-09-15T05:28:33.154Z,1.88
2022-09-15T05:30:59.848Z,1.63
2022-09-15T05:33:26.464Z,1.63
2022-09-15T05:35:53.870Z,1.70
2022-09-15T05:38:20.802Z,1.90
2022-09-15T05:40:47.377Z,1.90
2022-09-15T05:43:14.590Z,1.90
2022-09-15T05:45:42.723Z,1.98
2022-09-15T05:48:12.774Z,2.63
2022-09-15T05:50:39.532Z,1.80
2022-09-15T05:53:07.411Z,1.83
2022-09-15T05:55:40.081Z,1.90
2022-09-15T05:58:06.812Z,1.73
2022-09-15T06:00:33.720Z,2.00
2022-09-15T06:03:00.604Z,1.75
2022-09-15T06:05:27.485Z,3.22
2022-09-15T06:07:56.591Z,3.55
2022-09-15T06:10:25.035Z,4.88
2022-09-15T06:12:55.134Z,4.78
2022-09-15T06:15:22.324Z,5.53
2022-09-15T06:17:48.829Z,7.30
2022-09-15T06:20:15.605Z,6.95
2022-09-15T06:22:42.217Z,6.60
2022-09-15T06:25:08.960Z,8.00
2022-09-15T06:27:35.486Z,5.30
2022-09-15T06:30:06.799Z,4.32
2022-09-15T06:32:33.581Z,4.53
2022-09-15T06:35:00.562Z,4.15
2022-09-15T06:37:27.067Z,4.05
2022-09-15T06:39:53.665Z,4.97
2022-09-15T06:42:20.347Z,5.35
2022-09-15T06:44:47.498Z,5.72
2022-09-15T06:47:17.093Z,7.22
2022-09-15T06:49:43.639Z,9.27
2022-09-15T06:52:10.107Z,8.95
2022-09-15T06:54:37.367Z,9.75
2022-09-15T06:57:04.270Z,11.77
2022-09-15T06:59:30.955Z,10.63
2022-09-15T07:02:01.395Z,10.40
2022-09-15T07:04:30.902Z,13.80
2022-09-15T07:06:57.549Z,12.13
2022-09-15T07:09:24.249Z,10.13
2022-09-15T07:11:50.790Z,12.27
2022-09-15T07:14:17.358Z,16.45
2022-09-15T07:16:44.017Z,14.60
2022-09-15T07:19:10.625Z,16.17
2022-09-15T07:21:37.386Z,16.20
2022-09-15T07:24:07.265Z,12.73
2022-09-15T07:26:34.325Z,15.50
2022-09-15T07:29:01.674Z,12.43
2022-09-15T07:31:29.418Z,11.85
2022-09-15T07:33:56.104Z,11.10
2022-09-15T07:36:22.905Z,9.23
2022-09-15T07:38:50.038Z,9.25
2022-09-15T07:41:23.988Z,8.70
2022-09-15T07:43:54.288Z,9.70
2022-09-15T07:46:22.156Z,7.38
2022-09-15T07:48:49.972Z,7.15
2022-09-15T07:51:17.194Z,6.90
2022-09-15T07:53:44.941Z,7.82
2022-09-15T07:56:12.031Z,11.63
2022-09-15T07:58:38.922Z,9.80
2022-09-15T08:01:07.421Z,9.55
2022-09-15T08:03:34.119Z,11.68
2022-09-15T08:06:01.311Z,10.52
2022-09-15T08:08:28.452Z,9.98
2022-09-15T08:10:55.186Z,10.95
2022-09-15T08:13:21.895Z,12.20
2022-09-15T08:15:48.655Z,14.00
2022-09-15T08:18:15.654Z,13.63
2022-09-15T08:20:43.199Z,10.70
2022-09-15T08:23:10.621Z,10.90
2022-09-15T08:25:38.238Z,11.23
2022-09-15T08:28:04.824Z,10.23
2022-09-15T08:30:31.354Z,10.32
2022-09-15T08:32:57.861Z,9.02
2022-09-15T08:35:25.352Z,8.90
2022-09-15T08:37:53.639Z,8.57
2022-09-15T08:40:23.561Z,8.73
2022-09-15T08:42:52.799Z,8.60
2022-09-15T08:45:28.644Z,10.70
2022-09-15T08:48:00.364Z,10.05
2022-09-15T08:50:29.872Z,7.60
2022-09-15T08:52:59.339Z,7.20
2022-09-15T08:55:41.639Z,7.30
2022-09-15T08:58:13.980Z,7.45
2022-09-15T09:00:42.269Z,10.02
2022-09-15T09:03:24.019Z,9.98
2022-09-15T09:05:56.300Z,7.90
2022-09-15T09:08:22.889Z,8.10
2022-09-15T09:11:02.930Z,8.10
2022-09-15T09:13:51.359Z,9.43
2022-09-15T09:16:47.349Z,6.72
2022-09-15T09:19:16.653Z,6.15
2022-09-15T09:21:46.459Z,7.18
2022-09-15T09:24:13.151Z,9.38
2022-09-15T09:26:40.236Z,8.00
2022-09-15T09:29:12.974Z,8.98
2022-09-15T09:31:40.229Z,9.52
2022-09-15T09:34:12.543Z,6.78
2022-09-15T09:36:39.077Z,6.40
2022-09-15T09:39:06.153Z,8.05
2022-09-15T09:41:36.443Z,5.65
2022-09-15T09:44:04.401Z,4.68
2022-09-15T09:46:31.644Z,4.22
2022-09-15T09:49:11.031Z,5.47
2022-09-15T09:51:48.642Z,4.55
2022-09-15T09:54:20.692Z,4.50
2022-09-15T09:56:48.507Z,2.85
2022-09-15T09:59:35.562Z,3.20
2022-09-15T10:02:11.312Z,3.80
2022-09-15T10:04:38.575Z,3.30
2022-09-15T10:07:05.611Z,2.90
2022-09-15T10:09:33.515Z,2.65
2022-09-15T10:12:01.357Z,2.72
2022-09-15T10:14:30.040Z,3.15
2022-09-15T10:16:56.648Z,2.95
2022-09-15T10:19:23.258Z,2.50
2022-09-15T10:21:49.899Z,2.53
2022-09-15T10:24:39.559Z,2.00
2022-09-15T10:27:17.123Z,3.33
2022-09-15T10:29:43.850Z,3.13
2022-09-15T10:32:25.261Z,2.97
2022-09-15T10:35:05.570Z,2.45
2022-09-15T10:37:47.512Z,2.50
2022-09-15T10:40:16.926Z,2.28
2022-09-15T10:42:47.455Z,2.95
2022-09-15T10:45:14.026Z,2.53
2022-09-15T10:47:56.061Z,2.65
2022-09-15T10:50:25.815Z,2.22
2022-09-15T10:52:55.165Z,2.38
2022-09-15T10:55:51.179Z,2.40
2022-09-15T10:58:23.724Z,2.33
2022-09-15T11:00:59.051Z,2.22
2022-09-15T11:03:25.810Z,2.10
2022-09-15T11:06:06.998Z,2.85
2022-09-15T11:08:50.243Z,2.10
2022-09-15T11:11:40.289Z,1.92
2022-09-15T11:14:19.215Z,2.00
2022-09-15T11:17:06.349Z,2.65
2022-09-15T11:19:48.144Z,2.50
2022-09-15T11:22:18.605Z,2.10
2022-09-15T11:24:48.578Z,3.10
2022-09-15T11:27:21.358Z,2.25
2022-09-15T11:29:48.066Z,2.80
2022-09-15T11:32:29.454Z,2.78
2022-09-15T11:34:59.631Z,2.50
2022-09-15T11:37:44.997Z,1.90
2022-09-15T11:40:22.003Z,2.00
2022-09-15T11:42:57.950Z,2.17
2022-09-15T11:45:40.841Z,2.08
2022-09-15T11:48:14.719Z,2.60
2022-09-15T11:50:43.383Z,2.00
2022-09-15T11:53:16.929Z,1.85
2022-09-15T11:55:51.739Z,1.73
2022-09-15T11:58:33.410Z,1.80
2022-09-15T12:01:12.066Z,1.85
2022-09-15T12:03:50.880Z,2.10
2022-09-15T12:06:35.744Z,1.88
2022-09-15T12:09:06.069Z,1.90
2022-09-15T12:11:37.047Z,1.73
2022-09-15T12:14:04.390Z,1.45
2022-09-15T12:16:31.676Z,1.48
2022-09-15T12:19:18.642Z,1.73
2022-09-15T12:21:53.187Z,1.60
2022-09-15T12:24:19.737Z,2.00
2022-09-15T12:26:46.746Z,1.75
2022-09-15T12:29:22.336Z,1.45
2022-09-15T12:31:48.938Z,1.63
2022-09-15T12:34:21.340Z,1.60
2022-09-15T12:36:48.846Z,1.63
2022-09-15T12:39:34.136Z,2.60
2022-09-15T12:42:00.834Z,1.80
2022-09-15T12:44:30.997Z,1.40
2022-09-15T12:47:02.017Z,1.77
2022-09-15T12:49:30.693Z,1.30
2022-09-15T12:51:57.909Z,1.40
2022-09-15T12:54:28.733Z,1.42
2022-09-15T12:56:55.674Z,1.70
2022-09-15T12:59:25.411Z,1.13
2022-09-15T13:01:52.824Z,1.10
2022-09-15T13:04:43.608Z,1.25
2022-09-15T13:07:16.274Z,0.95
2022-09-15T13:09:44.512Z,1.33
2022-09-15T13:12:15.187Z,1.40
2022-09-15T13:14:45.076Z,1.45
2022-09-15T13:17:17.272Z,1.50
2022-09-15T13:19:46.739Z,1.40
2022-09-15T13:22:20.131Z,1.77
2022-09-15T13:24:46.644Z,1.30
2022-09-15T13:27:14.763Z,1.20
2022-09-15T13:30:07.954Z,1.27
2022-09-15T13:32:42.282Z,1.00
2022-09-15T13:35:33.028Z,1.10
2022-09-15T13:38:08.043Z,1.63
2022-09-15T13:40:42.141Z,1.42
2022-09-15T13:43:28.534Z,1.30
2022-09-15T13:46:29.088Z,1.40
2022-09-15T13:48:55.717Z,1.48
2022-09-15T13:51:25.288Z,1.40
2022-09-15T13:53:54.711Z,1.20
2022-09-15T13:56:40.007Z,1.30
2022-09-15T13:59:13.415Z,1.10
2022-09-15T14:01:42.212Z,1.10
2022-09-15T14:04:16.783Z,1.00
2022-09-15T14:06:45.339Z,1.40
2022-09-15T14:09:19.150Z,1.20
2022-09-15T14:11:49.617Z,1.58
2022-09-15T14:14:28.328Z,3.80
2022-09-15T14:16:55.972Z,2.22
2022-09-15T14:19:34.141Z,2.08
2022-09-15T14:22:01.342Z,2.08
2022-09-15T14:24:31.668Z,1.70
2022-09-15T14:27:00.131Z,1.75
2022-09-15T14:29:26.931Z,1.75
2022-09-15T14:31:54.259Z,1.92
2022-09-15T14:34:22.715Z,2.08
2022-09-15T14:37:15.562Z,1.63
2022-09-15T14:39:48.569Z,1.60
2022-09-15T14:42:30.573Z,1.70
2022-09-15T14:47:59.724Z,1.50
2022-09-15T14:50:30.283Z,1.60
2022-09-15T14:53:06.788Z,1.52
2022-09-15T14:55:48.047Z,1.55
2022-09-15T14:58:14.609Z,1.75
2022-09-15T15:00:46.497Z,1.20
2022-09-15T15:03:24.445Z,1.52
2022-09-15T15:06:02.543Z,1.50
2022-09-15T15:08:42.119Z,1.30
2022-09-15T15:11:11.204Z,1.50
2022-09-15T15:13:40.176Z,1.70
2022-09-15T15:16:09.694Z,1.52
2022-09-15T15:18:38.948Z,1.73
2022-09-15T15:21:06.589Z,2.00
2022-09-15T15:23:33.333Z,1.23
2022-09-15T15:26:18.469Z,1.30
2022-09-15T15:28:44.995Z,1.20
2022-09-15T15:31:16.215Z,1.75
2022-09-15T15:34:05.396Z,1.70
2022-09-15T15:36:33.847Z,1.45
2022-09-15T15:39:02.102Z,1.42
2022-09-15T15:41:30.328Z,1.42
2022-09-15T15:43:59.061Z,1.30
2022-09-15T15:46:49.141Z,1.80
2022-09-15T15:49:16.045Z,1.80
2022-09-15T15:51:43.042Z,1.50
2022-09-15T15:54:09.882Z,1.35
2022-09-15T15:56:37.997Z,1.08
2022-09-15T15:59:05.837Z,1.55
2022-09-15T16:01:33.262Z,1.38
2022-09-15T16:04:00.002Z,1.40
2022-09-15T16:06:26.972Z,1.77
2022-09-15T16:08:53.609Z,2.10
2022-09-15T16:11:20.893Z,1.50
2022-09-15T16:13:48.372Z,2.13
2022-09-15T16:16:16.631Z,1.20
2022-09-15T16:18:43.326Z,1.35
2022-09-15T16:21:15.671Z,1.45
2022-09-15T16:23:42.374Z,1.25
2022-09-15T16:26:09.710Z,1.55
2022-09-15T16:28:36.275Z,1.50
2022-09-15T16:31:03.041Z,1.55
2022-09-15T16:33:30.483Z,1.38
2022-09-15T16:36:09.281Z,1.60
2022-09-15T16:38:36.421Z,1.10
2022-09-15T16:41:03.629Z,1.58
2022-09-15T16:43:30.643Z,1.20
2022-09-15T16:45:57.343Z,1.50
2022-09-15T16:48:23.871Z,1.58
2022-09-15T16:51:16.940Z,1.50
2022-09-15T16:53:38.539Z,1.20
2022-09-15T16:56:10.819Z,1.20
2022-09-15T16:58:37.376Z,1.38
2022-09-15T17:01:04.053Z,1.20
2022-09-15T17:03:31.128Z,1.20
2022-09-15T17:05:59.707Z,1.65
2022-09-15T17:08:29.428Z,1.25
2022-09-15T17:10:57.175Z,1.30
2022-09-15T17:13:27.741Z,1.10
2022-09-15T17:15:57.297Z,1.40
2022-09-15T17:18:24.043Z,1.30
2022-09-15T17:20:50.741Z,1.10
2022-09-15T17:23:46.399Z,1.08
2022-09-15T17:26:14.148Z,1.38
2022-09-15T17:28:41.299Z,1.10
2022-09-15T17:31:13.752Z,1.08
2022-09-15T17:33:40.741Z,1.05
2022-09-15T17:36:07.848Z,0.98
2022-09-15T17:38:34.511Z,0.90
2022-09-15T17:41:01.070Z,1.00
2022-09-15T17:43:28.752Z,1.17
2022-09-15T17:45:55.376Z,1.02
2022-09-15T17:48:22.526Z,0.93
2022-09-15T17:50:49.101Z,0.93
2022-09-15T17:53:24.880Z,1.10
2022-09-15T17:55:51.544Z,1.05
2022-09-15T17:58:18.306Z,1.13
2022-09-15T18:00:45.950Z,1.00
2022-09-15T18:03:19.389Z,1.50
2022-09-15T18:05:46.124Z,1.05
2022-09-15T18:08:12.976Z,1.23
2022-09-15T18:10:39.599Z,1.17
2022-09-15T18:13:06.443Z,1.00
2022-09-15T18:15:34.236Z,1.08
2022-09-15T18:18:03.857Z,0.80
2022-09-15T18:20:31.920Z,0.77
2022-09-15T18:22:58.975Z,1.10
2022-09-15T18:25:28.316Z,1.60
2022-09-15T18:27:55.252Z,0.93
2022-09-15T18:30:23.016Z,1.13
2022-09-15T18:32:49.546Z,1.08
2022-09-15T18:35:18.656Z,1.00
2022-09-15T18:37:46.142Z,1.02
2022-09-15T18:40:13.914Z,0.82
2022-09-15T18:42:43.089Z,1.40
2022-09-15T18:45:10.644Z,1.20
2022-09-15T18:47:37.708Z,1.48
2022-09-15T18:50:06.594Z,1.95
2022-09-15T18:52:36.774Z,1.50
2022-09-15T18:55:04.123Z,1.90
2022-09-15T18:57:33.793Z,2.05
2022-09-15T19:00:00.331Z,1.92
2022-09-15T19:02:27.344Z,1.80
2022-09-15T19:04:53.990Z,1.58
2022-09-15T19:07:23.139Z,1.50
2022-09-15T19:09:56.371Z,1.58
2022-09-15T19:12:23.299Z,1.50
2022-09-15T19:14:49.850Z,1.50
2022-09-15T19:17:16.693Z,1.67
2022-09-15T19:19:43.562Z,1.60
2022-09-15T19:22:10.405Z,1.42
2022-09-15T19:24:37.158Z,1.35
2022-09-15T19:27:04.886Z,1.20
2022-09-15T19:29:34.933Z,1.10
2022-09-15T19:32:02.882Z,1.67
2022-09-15T19:34:29.402Z,1.20
2022-09-15T19:36:56.105Z,1.35
2022-09-15T19:39:22.850Z,1.23
2022-09-15T19:41:49.407Z,1.45
2022-09-15T19:44:18.706Z,1.48
2022-09-15T19:46:45.467Z,1.73
2022-09-15T19:49:12.618Z,1.55
2022-09-15T19:51:39.605Z,1.33
2022-09-15T19:54:06.894Z,1.30
2022-09-15T19:56:34.224Z,1.10
2022-09-15T19:59:01.036Z,1.20
2022-09-15T20:01:28.503Z,1.20
2022-09-15T20:03:56.124Z,1.20
2022-09-15T20:06:23.684Z,1.77
2022-09-15T20:08:54.102Z,1.35
2022-09-15T20:11:20.804Z,1.23
2022-09-15T20:13:47.479Z,1.13
2022-09-15T20:16:16.450Z,1.30
2022-09-15T20:18:43.673Z,1.40
2022-09-15T20:21:12.377Z,0.90
2022-09-15T20:23:48.706Z,1.20
2022-09-15T20:26:16.216Z,1.17
2022-09-15T20:28:43.445Z,1.27
2022-09-15T20:31:11.565Z,1.20
2022-09-15T20:33:39.218Z,0.98
2022-09-15T20:36:07.516Z,1.10
2022-09-15T20:38:35.064Z,1.35
2022-09-15T20:41:02.008Z,1.00
2022-09-15T20:43:28.785Z,1.40
2022-09-15T20:45:56.241Z,1.10
2022-09-15T20:48:22.932Z,1.00
2022-09-15T20:50:49.451Z,1.00
2022-09-15T20:53:15.935Z,1.42
2022-09-15T20:55:48.241Z,1.10
2022-09-15T20:58:15.232Z,1.00
2022-09-15T21:00:41.787Z,1.27
2022-09-15T21:03:08.649Z,1.58
2022-09-15T21:05:35.224Z,1.15
2022-09-15T21:08:01.799Z,1.20
2022-09-15T21:10:30.292Z,1.42
2022-09-15T21:12:57.333Z,1.15
2022-09-15T21:15:23.983Z,1.48
2022-09-15T21:17:50.502Z,1.98
2022-09-15T21:20:17.029Z,1.30
2022-09-15T21:22:43.687Z,1.15
2022-09-15T21:25:10.109Z,1.20
2022-09-15T21:27:37.577Z,1.38
2022-09-15T21:30:04.835Z,1.17
2022-09-15T21:32:34.763Z,1.10
2022-09-15T21:35:01.261Z,1.25
2022-09-15T21:37:31.928Z,1.45
2022-09-15T21:39:58.692Z,1.23
2022-09-15T21:42:25.722Z,1.00
2022-09-15T21:44:52.287Z,1.33
2022-09-15T21:47:22.321Z,1.50
2022-09-15T21:49:49.032Z,1.10
2022-09-15T21:52:15.573Z,0.98
2022-09-15T21:54:43.350Z,1.20
2022-09-15T21:57:10.172Z,1.23
2022-09-15T21:59:37.004Z,1.10
2022-09-15T22:02:03.561Z,1.23
2022-09-15T22:04:30.515Z,1.35
2022-09-15T22:06:57.051Z,1.58
2022-09-15T22:09:26.546Z,1.23
2022-09-15T22:11:53.473Z,1.20
2022-09-15T22:14:21.418Z,1.67
2022-09-15T22:16:48.067Z,1.17
2022-09-15T22:19:14.777Z,1.23
2022-09-15T22:21:42.270Z,1.05
2022-09-15T22:24:10.462Z,1.60
2022-09-15T22:26:37.694Z,0.95
2022-09-15T22:29:05.346Z,1.55
2022-09-15T22:31:31.947Z,1.38
2022-09-15T22:33:58.529Z,1.42
2022-09-15T22:36:30.188Z,0.80
2022-09-15T22:39:06.703Z,1.45
2022-09-15T22:41:34.550Z,0.98
2022-09-15T22:44:01.112Z,1.20
2022-09-15T22:46:27.671Z,1.17
2022-09-15T22:48:54.265Z,1.35
2022-09-15T22:51:20.782Z,1.10
2022-09-15T22:53:47.360Z,0.90
2022-09-15T22:56:17.144Z,0.93
2022-09-15T22:58:44.001Z,1.10
2022-09-15T23:01:12.226Z,1.40
2022-09-15T23:03:39.222Z,1.35
2022-09-15T23:06:06.205Z,1.52
2022-09-15T23:08:33.217Z,1.20
2022-09-15T23:11:02.848Z,1.38
2022-09-15T23:13:29.491Z,1.25
2022-09-15T23:15:56.650Z,1.00
2022-09-15T23:18:23.272Z,1.13
2022-09-15T23:20:55.430Z,1.20
2022-09-15T23:23:21.912Z,1.20
2022-09-15T23:25:48.492Z,1.42
2022-09-15T23:28:14.994Z,1.17
2022-09-15T23:30:41.705Z,1.30
2022-09-15T23:33:08.460Z,1.00
2022-09-15T23:35:35.362Z,1.00
2022-09-15T23:38:01.931Z,1.20
2022-09-15T23:40:29.732Z,1.15
2022-09-15T23:42:56.285Z,1.30
2022-09-15T23:45:25.183Z,0.90
2022-09-15T23:47:51.725Z,1.10
2022-09-15T23:50:18.450Z,1.00
2022-09-15T23:52:44.995Z,1.40
2022-09-15T23:55:11.481Z,1.23
2022-09-15T23:57:38.067Z,1.52
